Time;durP1;ratioP1;P1;durP2;ratioP2;P2;SDS_P1;SDS_P2;PMS_P1;PMS_P2;Temp;Humidity;BMP_temperature;BMP_pressure;BME280_temperature;BME280_humidity;BME280_pressure;Samples;Min_cycle;Max_cycle;Signal;HPM_P1;HPM_P2
2023/10/14 00:00:53;;;;;;;;;;;;;;;;;;5055014;28;19925;-69
2023/10/14 00:03:35;;;;;;;;;;;;;;;;;;5053349;28;19924;-70
2023/10/14 00:06:03;;;;;;;;;;;;;;;;;;5054816;28;19925;-69
2023/10/14 00:08:31;;;;;;;;;;;;;;;;;;5054658;28;20035;-68
2023/10/14 00:10:57;;;;;;;;;;;;;;;;;;5053347;28;20003;-69
2023/10/14 00:13:30;;;;;;;;;;;;;;;;;;5036541;28;20022;-70
2023/10/14 00:15:56;;;;;;;;;;;;;;;;;;5054714;28;19968;-69
2023/10/14 00:18:24;;;;;;;;;;;;;;;;;;5030593;28;19960;-69
2023/10/14 00:20:51;;;;;;;;;;;;;;;;;;5034647;28;19971;-69
2023/10/14 00:23:17;;;;;;;;;;;;;;;;;;5034326;28;19932;-69
2023/10/14 00:25:43;;;;;;;;;;;;;;;;;;5017091;28;19921;-70
2023/10/14 00:28:12;;;;;;;;;;;;;;;;;;5034527;28;19970;-69
2023/10/14 00:30:38;;;;;;;;;;;;;;;;;;5034568;28;19929;-69
2023/10/14 00:33:04;;;;;;;;;;;;;;;;;;5034267;28;20331;-69
2023/10/14 00:35:30;;;;;;;;;;;;;;;;;;5033718;28;19921;-71
2023/10/14 00:38:02;;;;;;;;;;;;;;;;;;5034358;28;19925;-69
2023/10/14 00:40:28;;;;;;;;;;;;;;;;;;5016361;28;19929;-69
2023/10/14 00:42:56;;;;;;;;;;;;;;;;;;5034155;28;19968;-70
2023/10/14 00:45:21;;;;;;;;;;;;;;;;;;5034068;28;20476;-69
2023/10/14 00:47:47;;;;;;;;;;;;;;;;;;5034095;28;19968;-69
2023/10/14 00:50:26;;;;;;;;;;;;;;;;;;5034068;28;19928;-70
2023/10/14 00:52:57;;;;;;;;;;;;;;;;;;5030390;28;19932;-69
2023/10/14 00:55:26;;;;;;;;;;;;;;;;;;5054040;28;19931;-70
2023/10/14 00:57:54;;;;;;;;;;;;;;;;;;5052301;28;19999;-70
2023/10/14 01:00:24;;;;;;;;;;;;;;;;;;5053991;28;19924;-70
2023/10/14 01:02:51;;;;;;;;;;;;;;;;;;5035701;28;19920;-70
2023/10/14 01:05:20;;;;;;;;;;;;;;;;;;5053949;28;19920;-69
2023/10/14 01:07:47;;;;;;;;;;;;;;;;;;5052339;28;19925;-69
2023/10/14 01:10:23;;;;;;;;;;;;;;;;;;5035406;28;19931;-69
2023/10/14 01:12:54;;;;;;;;;;;;;;;;;;5053743;28;19970;-70
2023/10/14 01:15:20;;;;;;;;;;;;;;;;;;5053678;28;19974;-70
2023/10/14 01:17:46;;;;;;;;;;;;;;;;;;5053626;28;20354;-69
2023/10/14 01:22:42;;;;;;;;;;;;;;;;;;5051980;28;19921;-69
2023/10/14 01:25:12;;;;;;;;;;;;;;;;;;5053041;28;19927;-70
2023/10/14 01:27:42;;;;;;;;;;;;;;;;;;5015541;28;19933;-69
2023/10/14 01:30:11;;;;;;;;;;;;;;;;;;5015353;28;20444;-69
2023/10/14 01:37:54;;;;;;;;;;;;;;;;;;5033279;28;19921;-69
2023/10/14 01:42:48;;;;;;;;;;;;;;;;;;5033104;28;20326;-69
2023/10/14 01:45:20;;;;;;;;;;;;;;;;;;5033064;28;19921;-68
2023/10/14 01:47:49;;;;;;;;;;;;;;;;;;5014314;28;19921;-70
2023/10/14 01:50:15;;;;;;;;;;;;;;;;;;5015115;28;19921;-69
2023/10/14 01:52:43;;;;;;;;;;;;;;;;;;5040326;28;20354;-70
2023/10/14 01:55:10;;;;;;;;;;;;;;;;;;5052996;28;19924;-70
2023/10/14 01:57:36;;;;;;;;;;;;;;;;;;5052872;28;19924;-69
2023/10/14 02:00:12;;;;;;;;;;;;;;;;;;5052805;28;19975;-68
2023/10/14 02:02:47;;;;;;;;;;;;;;;;;;5052900;28;19924;-69
2023/10/14 02:05:15;;;;;;;;;;;;;;;;;;5052765;28;19920;-70
2023/10/14 02:07:41;;;;;;;;;;;;;;;;;;5034689;28;19920;-69
2023/10/14 02:10:12;;;;;;;;;;;;;;;;;;5051002;28;19971;-68
2023/10/14 02:12:38;;;;;;;;;;;;;;;;;;5052728;28;20309;-69
2023/10/14 02:15:08;;;;;;;;;;;;;;;;;;5052492;28;19965;-69
2023/10/14 02:17:34;;;;;;;;;;;;;;;;;;5050985;28;19959;-69
2023/10/14 02:20:07;;;;;;;;;;;;;;;;;;5052087;28;19921;-69
2023/10/14 02:22:38;;;;;;;;;;;;;;;;;;5052658;28;19964;-69
2023/10/14 02:25:04;;;;;;;;;;;;;;;;;;5052138;28;20374;-69
2023/10/14 02:27:30;;;;;;;;;;;;;;;;;;5052410;28;19920;-69
2023/10/14 02:29:56;;;;;;;;;;;;;;;;;;5052321;28;19963;-70
2023/10/14 02:32:22;;;;;;;;;;;;;;;;;;5052413;28;19986;-69
2023/10/14 02:34:48;;;;;;;;;;;;;;;;;;5051921;28;19982;-69
2023/10/14 02:37:14;;;;;;;;;;;;;;;;;;5052269;28;19920;-69
2023/10/14 02:39:43;;;;;;;;;;;;;;;;;;5051853;28;19925;-69
2023/10/14 02:42:09;;;;;;;;;;;;;;;;;;5052245;28;19924;-69
2023/10/14 02:44:44;;;;;;;;;;;;;;;;;;5051980;28;20397;-69
2023/10/14 02:47:10;;;;;;;;;;;;;;;;;;5084825;28;20353;-69
2023/10/14 02:49:46;;;;;;;;;;;;;;;;;;5052019;28;20015;-69
2023/10/14 02:52:12;;;;;;;;;;;;;;;;;;5052098;28;19928;-70
2023/10/14 02:54:40;;;;;;;;;;;;;;;;;;5050476;28;19929;-69
2023/10/14 02:59:50;;;;;;;;;;;;;;;;;;5051754;28;19921;-69
2023/10/14 03:02:18;;;;;;;;;;;;;;;;;;5051991;28;19948;-69
2023/10/14 03:07:28;;;;;;;;;;;;;;;;;;5051821;28;19971;-68
2023/10/14 03:09:58;;;;;;;;;;;;;;;;;;5051579;28;19935;-69
2023/10/14 03:12:24;;;;;;;;;;;;;;;;;;5051494;28;20457;-69
2023/10/14 03:14:51;;;;;;;;;;;;;;;;;;5049366;28;20003;-69
2023/10/14 03:17:21;;;;;;;;;;;;;;;;;;5050832;28;20314;-70
2023/10/14 03:19:52;;;;;;;;;;;;;;;;;;5050846;28;19928;-69
2023/10/14 03:22:21;;;;;;;;;;;;;;;;;;5050949;28;19931;-69
2023/10/14 03:24:47;;;;;;;;;;;;;;;;;;5050829;28;19927;-70
2023/10/14 03:27:15;;;;;;;;;;;;;;;;;;5082709;28;20264;-70
2023/10/14 03:29:45;;;;;;;;;;;;;;;;;;5050833;28;19998;-69
2023/10/14 03:32:11;;;;;;;;;;;;;;;;;;5051491;28;19978;-69
2023/10/14 03:34:41;;;;;;;;;;;;;;;;;;5083694;28;19921;-70
2023/10/14 03:37:21;;;;;;;;;;;;;;;;;;5050855;28;19948;-69
2023/10/14 03:40:34;;;;;;;;;;;;;;;;;;5050519;28;19943;-69
2023/10/14 03:42:33;;;;;;;;;;;;;;;;;;5043097;28;19921;-69
2023/10/14 03:44:58;;;;;;;;;;;;;;;;;;5046019;28;19932;-69
2023/10/14 03:47:34;;;;;;;;;;;;;;;;;;5046255;28;19925;-69
2023/10/14 03:50:00;;;;;;;;;;;;;;;;;;5030686;28;19974;-69
2023/10/14 03:52:26;;;;;;;;;;;;;;;;;;5035602;28;20324;-69
2023/10/14 03:54:52;;;;;;;;;;;;;;;;;;5050672;28;19989;-69
2023/10/14 03:57:32;;;;;;;;;;;;;;;;;;5049238;28;19955;-69
2023/10/14 04:00:08;;;;;;;;;;;;;;;;;;5050622;28;19927;-69
2023/10/14 04:02:35;;;;;;;;;;;;;;;;;;5050318;28;19992;-69
2023/10/14 04:05:03;;;;;;;;;;;;;;;;;;5050342;28;19974;-70
2023/10/14 04:07:29;;;;;;;;;;;;;;;;;;5050492;28;19928;-69
2023/10/14 04:10:04;;;;;;;;;;;;;;;;;;5051276;28;19933;-69
2023/10/14 04:17:40;;;;;;;;;;;;;;;;;;5053330;28;20398;-70
2023/10/14 04:30:32;;;;;;;;;;;;;;;;;;5054626;28;19932;-69
2023/10/14 04:35:31;;;;;;;;;;;;;;;;;;5054673;28;19998;-70
2023/10/14 04:37:57;;;;;;;;;;;;;;;;;;5054453;28;19963;-70
2023/10/14 04:42:59;;;;;;;;;;;;;;;;;;5054335;28;19921;-69
2023/10/14 04:45:31;;;;;;;;;;;;;;;;;;5054460;28;19932;-70
2023/10/14 04:47:58;;;;;;;;;;;;;;;;;;5086267;28;19920;-69
2023/10/14 04:50:24;;;;;;;;;;;;;;;;;;5086330;28;19932;-69
2023/10/14 04:52:49;;;;;;;;;;;;;;;;;;5054059;28;19925;-70
2023/10/14 04:55:25;;;;;;;;;;;;;;;;;;5053970;28;19924;-69
2023/10/14 04:58:12;;;;;;;;;;;;;;;;;;5052686;28;19928;-70
2023/10/14 05:01:00;;;;;;;;;;;;;;;;;;5053854;28;20019;-69
2023/10/14 05:03:29;;;;;;;;;;;;;;;;;;5053724;28;20393;-69
2023/10/14 05:06:14;;;;;;;;;;;;;;;;;;5053711;28;20416;-68
2023/10/14 05:08:51;;;;;;;;;;;;;;;;;;5052251;28;19920;-68
2023/10/14 05:11:18;;;;;;;;;;;;;;;;;;5053679;28;19921;-69
2023/10/14 05:13:44;;;;;;;;;;;;;;;;;;5035590;28;20433;-69
2023/10/14 05:16:20;;;;;;;;;;;;;;;;;;5053814;28;20038;-70
2023/10/14 05:19:00;;;;;;;;;;;;;;;;;;5015727;28;19932;-70
2023/10/14 05:21:36;;;;;;;;;;;;;;;;;;5015512;28;19987;-68
2023/10/14 05:24:03;;;;;;;;;;;;;;;;;;5032257;28;19929;-69
2023/10/14 05:26:35;;;;;;;;;;;;;;;;;;5033684;28;19972;-68
2023/10/14 05:29:11;;;;;;;;;;;;;;;;;;5015596;28;19921;-69
2023/10/14 05:31:37;;;;;;;;;;;;;;;;;;5033334;28;19921;-69
2023/10/14 05:34:04;;;;;;;;;;;;;;;;;;5015395;28;19932;-70
2023/10/14 05:36:32;;;;;;;;;;;;;;;;;;5015620;28;20019;-69
2023/10/14 05:38:57;;;;;;;;;;;;;;;;;;5033127;28;20461;-69
2023/10/14 05:41:23;;;;;;;;;;;;;;;;;;5033218;28;20016;-70
2023/10/14 05:43:51;;;;;;;;;;;;;;;;;;5033056;28;19925;-69
2023/10/14 05:46:17;;;;;;;;;;;;;;;;;;5032537;28;19928;-68
2023/10/14 05:48:43;;;;;;;;;;;;;;;;;;5032797;28;19925;-69
2023/10/14 05:51:09;;;;;;;;;;;;;;;;;;5033097;28;19932;-68
2023/10/14 05:53:35;;;;;;;;;;;;;;;;;;5047595;28;19966;-69
2023/10/14 05:56:11;;;;;;;;;;;;;;;;;;5051325;28;19924;-68
2023/10/14 05:58:37;;;;;;;;;;;;;;;;;;5052598;28;19921;-68
2023/10/14 06:01:03;;;;;;;;;;;;;;;;;;5052153;28;19970;-70
2023/10/14 06:03:29;;;;;;;;;;;;;;;;;;5050543;28;19925;-70
2023/10/14 06:05:55;;;;;;;;;;;;;;;;;;5051040;28;19974;-69
2023/10/14 06:08:21;;;;;;;;;;;;;;;;;;5051359;28;19932;-68
2023/10/14 06:10:46;;;;;;;;;;;;;;;;;;5052315;28;19924;-69
2023/10/14 06:13:14;;;;;;;;;;;;;;;;;;5052238;28;19963;-70
2023/10/14 06:15:40;;;;;;;;;;;;;;;;;;5051136;28;19927;-69
2023/10/14 06:18:08;;;;;;;;;;;;;;;;;;5052204;28;19929;-69
2023/10/14 06:20:34;;;;;;;;;;;;;;;;;;5052382;28;19928;-69
2023/10/14 06:23:00;;;;;;;;;;;;;;;;;;5084560;28;20019;-69
2023/10/14 06:25:26;;;;;;;;;;;;;;;;;;5084399;28;19931;-69
2023/10/14 06:27:53;;;;;;;;;;;;;;;;;;5052256;28;19921;-69
2023/10/14 06:30:19;;;;;;;;;;;;;;;;;;5052210;28;19921;-69
2023/10/14 06:32:47;;;;;;;;;;;;;;;;;;5051767;28;20700;-69
2023/10/14 06:35:14;;;;;;;;;;;;;;;;;;5084229;28;19921;-69
2023/10/14 06:37:42;;;;;;;;;;;;;;;;;;5052136;28;19921;-68
2023/10/14 06:40:12;;;;;;;;;;;;;;;;;;5084083;28;19932;-69
2023/10/14 06:42:43;;;;;;;;;;;;;;;;;;5051917;28;19931;-69
2023/10/14 06:45:09;;;;;;;;;;;;;;;;;;5051819;28;20465;-69
2023/10/14 06:47:35;;;;;;;;;;;;;;;;;;5052049;28;19924;-69
2023/10/14 06:50:01;;;;;;;;;;;;;;;;;;5052101;28;19921;-69
2023/10/14 06:52:27;;;;;;;;;;;;;;;;;;5052012;28;19952;-69
2023/10/14 06:54:53;;;;;;;;;;;;;;;;;;5051794;28;19964;-69
2023/10/14 06:57:19;;;;;;;;;;;;;;;;;;5050509;28;19920;-69
2023/10/14 06:59:45;;;;;;;;;;;;;;;;;;5051551;28;19921;-69
2023/10/14 07:02:11;;;;;;;;;;;;;;;;;;5051773;28;19947;-69
2023/10/14 07:04:41;;;;;;;;;;;;;;;;;;5050429;28;20382;-69
2023/10/14 07:07:09;;;;;;;;;;;;;;;;;;5050630;28;19921;-69
2023/10/14 07:09:36;;;;;;;;;;;;;;;;;;5051473;28;19928;-69
2023/10/14 07:12:13;;;;;;;;;;;;;;;;;;5051790;28;19925;-69
2023/10/14 07:14:39;;;;;;;;;;;;;;;;;;5051526;28;19932;-69
2023/10/14 07:17:07;;;;;;;;;;;;;;;;;;5050153;28;19920;-69
2023/10/14 07:19:35;;;;;;;;;;;;;;;;;;5066799;28;19925;-70
2023/10/14 07:22:07;;;;;;;;;;;;;;;;;;5083655;28;19932;-69
2023/10/14 07:24:33;;;;;;;;;;;;;;;;;;5051616;28;19975;-69
2023/10/14 07:26:59;;;;;;;;;;;;;;;;;;5051454;28;19928;-70
2023/10/14 07:29:25;;;;;;;;;;;;;;;;;;5083565;28;19951;-69
2023/10/14 07:31:51;;;;;;;;;;;;;;;;;;5051836;28;20011;-69
2023/10/14 07:34:17;;;;;;;;;;;;;;;;;;5083721;28;20008;-70
2023/10/14 07:36:43;;;;;;;;;;;;;;;;;;5083639;28;20032;-69
2023/10/14 07:39:27;;;;;;;;;;;;;;;;;;5083335;28;19947;-70
2023/10/14 07:41:53;;;;;;;;;;;;;;;;;;5082653;28;19928;-69
2023/10/14 07:44:19;;;;;;;;;;;;;;;;;;5083186;28;20066;-70
2023/10/14 07:46:45;;;;;;;;;;;;;;;;;;5054694;28;19944;-70
2023/10/14 07:49:11;;;;;;;;;;;;;;;;;;5069846;28;20445;-70
2023/10/14 07:51:37;;;;;;;;;;;;;;;;;;5054661;28;19924;-70
2023/10/14 07:54:03;;;;;;;;;;;;;;;;;;5054852;28;19931;-69
2023/10/14 07:56:29;;;;;;;;;;;;;;;;;;5054765;28;19925;-69
2023/10/14 07:58:55;;;;;;;;;;;;;;;;;;5053500;28;20012;-69
2023/10/14 08:01:25;;;;;;;;;;;;;;;;;;5053403;28;20630;-70
2023/10/14 08:03:56;;;;;;;;;;;;;;;;;;5054895;28;19929;-70
2023/10/14 08:06:21;;;;;;;;;;;;;;;;;;5054926;28;20012;-68
2023/10/14 08:08:47;;;;;;;;;;;;;;;;;;5054750;28;20007;-69
2023/10/14 08:11:13;;;;;;;;;;;;;;;;;;5053318;28;19924;-68
2023/10/14 08:13:43;;;;;;;;;;;;;;;;;;5053377;28;19925;-69
2023/10/14 08:16:09;;;;;;;;;;;;;;;;;;5033006;28;19974;-70
2023/10/14 08:18:35;;;;;;;;;;;;;;;;;;5036659;28;19924;-70
2023/10/14 08:21:03;;;;;;;;;;;;;;;;;;5036457;28;19928;-70
2023/10/14 08:23:29;;;;;;;;;;;;;;;;;;5054687;28;19921;-69
2023/10/14 08:25:55;;;;;;;;;;;;;;;;;;5054547;28;20259;-70
2023/10/14 08:28:21;;;;;;;;;;;;;;;;;;5054671;28;20358;-70
2023/10/14 08:30:49;;;;;;;;;;;;;;;;;;5054578;28;20282;-70
2023/10/14 08:33:15;;;;;;;;;;;;;;;;;;5036137;28;20346;-68
2023/10/14 08:35:44;;;;;;;;;;;;;;;;;;5053400;28;19967;-70
2023/10/14 08:38:14;;;;;;;;;;;;;;;;;;5053436;28;19925;-70
2023/10/14 08:40:40;;;;;;;;;;;;;;;;;;5035428;28;20290;-69
2023/10/14 08:43:06;;;;;;;;;;;;;;;;;;5053313;28;20028;-69
2023/10/14 08:45:35;;;;;;;;;;;;;;;;;;5035720;28;20019;-69
2023/10/14 08:48:01;;;;;;;;;;;;;;;;;;5036307;28;19928;-70
2023/10/14 08:50:29;;;;;;;;;;;;;;;;;;5053178;28;19925;-69
2023/10/14 08:52:56;;;;;;;;;;;;;;;;;;5053117;28;19987;-70
2023/10/14 08:55:22;;;;;;;;;;;;;;;;;;5052954;28;19975;-70
2023/10/14 08:57:48;;;;;;;;;;;;;;;;;;5053118;28;20008;-70
2023/10/14 09:00:18;;;;;;;;;;;;;;;;;;5052915;28;20024;-70
2023/10/14 09:02:44;;;;;;;;;;;;;;;;;;5053684;28;20373;-70
2023/10/14 09:05:11;;;;;;;;;;;;;;;;;;5035380;28;19980;-70
2023/10/14 09:07:38;;;;;;;;;;;;;;;;;;5053020;28;20003;-70
2023/10/14 09:10:04;;;;;;;;;;;;;;;;;;5052806;28;19929;-70
2023/10/14 09:12:30;;;;;;;;;;;;;;;;;;5053118;28;20275;-70
2023/10/14 09:14:56;;;;;;;;;;;;;;;;;;5053472;28;19925;-69
2023/10/14 09:17:22;;;;;;;;;;;;;;;;;;5053128;28;19931;-70
2023/10/14 09:19:48;;;;;;;;;;;;;;;;;;5053413;28;20011;-71
2023/10/14 09:22:14;;;;;;;;;;;;;;;;;;5018588;28;19924;-70
2023/10/14 09:24:39;;;;;;;;;;;;;;;;;;5018613;28;19920;-69
2023/10/14 09:27:05;;;;;;;;;;;;;;;;;;5035055;28;19936;-69
2023/10/14 09:29:33;;;;;;;;;;;;;;;;;;5035069;28;19933;-70
2023/10/14 09:31:59;;;;;;;;;;;;;;;;;;5053123;28;19932;-69
2023/10/14 09:34:27;;;;;;;;;;;;;;;;;;5053209;28;19924;-68
2023/10/14 09:36:55;;;;;;;;;;;;;;;;;;5053083;28;19971;-70
2023/10/14 09:39:24;;;;;;;;;;;;;;;;;;5052966;28;20417;-69
2023/10/14 09:41:50;;;;;;;;;;;;;;;;;;5034871;28;19925;-70
2023/10/14 09:44:17;;;;;;;;;;;;;;;;;;5034752;28;19978;-69
2023/10/14 09:46:43;;;;;;;;;;;;;;;;;;5053008;28;19944;-70
2023/10/14 09:49:10;;;;;;;;;;;;;;;;;;5018355;28;19921;-69
2023/10/14 09:51:36;;;;;;;;;;;;;;;;;;5052855;28;20346;-69
2023/10/14 09:54:03;;;;;;;;;;;;;;;;;;5034615;28;19921;-69
2023/10/14 09:56:29;;;;;;;;;;;;;;;;;;5034805;28;20404;-70
2023/10/14 09:58:54;;;;;;;;;;;;;;;;;;5052800;28;20007;-69
2023/10/14 10:01:24;;;;;;;;;;;;;;;;;;5052626;28;20291;-70
2023/10/14 10:03:50;;;;;;;;;;;;;;;;;;5052594;28;19921;-69
2023/10/14 10:06:16;;;;;;;;;;;;;;;;;;5052524;28;19935;-69
2023/10/14 10:08:43;;;;;;;;;;;;;;;;;;5033184;28;20392;-69
2023/10/14 10:11:10;;;;;;;;;;;;;;;;;;5052653;28;19971;-70
2023/10/14 10:13:36;;;;;;;;;;;;;;;;;;5052234;28;20012;-70
2023/10/14 10:16:03;;;;;;;;;;;;;;;;;;5052520;28;20011;-70
2023/10/14 10:18:28;;;;;;;;;;;;;;;;;;5052311;28;20016;-69
2023/10/14 10:20:56;;;;;;;;;;;;;;;;;;5034372;28;20340;-70
2023/10/14 10:23:22;;;;;;;;;;;;;;;;;;5034187;28;19940;-69
2023/10/14 10:25:50;;;;;;;;;;;;;;;;;;5052257;28;20062;-70
2023/10/14 10:28:16;;;;;;;;;;;;;;;;;;5034166;28;19964;-72
2023/10/14 10:30:42;;;;;;;;;;;;;;;;;;5034296;28;19963;-71
2023/10/14 10:33:07;;;;;;;;;;;;;;;;;;5034326;28;19924;-69
2023/10/14 10:35:33;;;;;;;;;;;;;;;;;;5033781;28;19920;-69
2023/10/14 10:37:59;;;;;;;;;;;;;;;;;;5050998;28;20357;-71
2023/10/14 10:40:28;;;;;;;;;;;;;;;;;;5032985;28;20061;-70
2023/10/14 10:42:54;;;;;;;;;;;;;;;;;;5051079;28;19964;-70
2023/10/14 10:45:20;;;;;;;;;;;;;;;;;;5033047;28;19960;-69
2023/10/14 10:47:46;;;;;;;;;;;;;;;;;;5051016;28;19924;-70
2023/10/14 10:50:12;;;;;;;;;;;;;;;;;;5033194;28;19925;-70
2023/10/14 10:52:38;;;;;;;;;;;;;;;;;;5033178;28;19928;-70
2023/10/14 10:55:04;;;;;;;;;;;;;;;;;;5050700;28;19921;-70
2023/10/14 10:57:30;;;;;;;;;;;;;;;;;;5051489;28;20578;-70
2023/10/14 10:59:55;;;;;;;;;;;;;;;;;;5051684;28;20014;-71
2023/10/14 11:02:21;;;;;;;;;;;;;;;;;;5051016;28;19925;-71
2023/10/14 11:04:48;;;;;;;;;;;;;;;;;;5050834;28;19970;-70
2023/10/14 11:07:14;;;;;;;;;;;;;;;;;;5051077;28;19921;-71
2023/10/14 11:09:40;;;;;;;;;;;;;;;;;;5032724;28;20003;-70
2023/10/14 11:12:06;;;;;;;;;;;;;;;;;;5033276;28;19929;-70
2023/10/14 11:14:32;;;;;;;;;;;;;;;;;;5051039;28;19960;-69
2023/10/14 11:16:58;;;;;;;;;;;;;;;;;;5033184;28;19924;-70
2023/10/14 11:19:24;;;;;;;;;;;;;;;;;;5034669;28;19924;-71
2023/10/14 11:21:50;;;;;;;;;;;;;;;;;;5036977;28;19920;-71
2023/10/14 11:24:16;;;;;;;;;;;;;;;;;;5067212;22;20316;-66
2023/10/14 11:26:44;;;;;;;;;;;;;;;;;;5055611;28;19932;-66
2023/10/14 11:29:10;;;;;;;;;;;;;;;;;;5055498;28;19921;-66
2023/10/14 11:31:39;;;;;;;;;;;;;;;;;;5055875;28;19982;-68
2023/10/14 11:34:05;;;;;;;;;;;;;;;;;;5055394;28;19921;-66
2023/10/14 11:36:30;;;;;;;;;;;;;;;;;;5055334;28;20374;-66
2023/10/14 11:38:58;;;;;;;;;;;;;;;;;;5055224;28;19935;-66
2023/10/14 11:41:24;;;;;;;;;;;;;;;;;;5055301;28;20289;-66
2023/10/14 11:43:51;;;;;;;;;;;;;;;;;;5055322;28;19924;-66
2023/10/14 11:46:17;;;;;;;;;;;;;;;;;;5055219;28;19931;-66
2023/10/14 11:48:43;;;;;;;;;;;;;;;;;;5055284;28;19920;-66
2023/10/14 11:51:12;;;;;;;;;;;;;;;;;;5055350;28;19935;-66
2023/10/14 11:53:38;;;;;;;;;;;;;;;;;;5055346;28;19924;-66
2023/10/14 11:56:04;;;;;;;;;;;;;;;;;;5055405;28;20377;-65
2023/10/14 11:58:30;;;;;;;;;;;;;;;;;;5049752;28;19924;-66
2023/10/14 12:00:56;;;;;;;;;;;;;;;;;;5055171;28;19929;-66
2023/10/14 12:03:25;;;;;;;;;;;;;;;;;;5037381;28;19921;-67
2023/10/14 12:05:51;;;;;;;;;;;;;;;;;;5054947;28;19920;-66
2023/10/14 12:08:22;;;;;;;;;;;;;;;;;;5055075;28;19925;-66
2023/10/14 12:10:48;;;;;;;;;;;;;;;;;;5036914;28;19986;-65
2023/10/14 12:13:14;;;;;;;;;;;;;;;;;;5055099;28;20338;-66
2023/10/14 12:15:40;;;;;;;;;;;;;;;;;;5036767;28;19971;-65
2023/10/14 12:18:06;;;;;;;;;;;;;;;;;;5054548;28;19925;-66
2023/10/14 12:20:32;;;;;;;;;;;;;;;;;;5054598;28;19925;-66
2023/10/14 12:22:58;;;;;;;;;;;;;;;;;;5054790;28;19927;-66
2023/10/14 12:25:24;;;;;;;;;;;;;;;;;;5054439;28;20294;-65
2023/10/14 12:27:50;;;;;;;;;;;;;;;;;;5036615;28;19924;-66
2023/10/14 12:30:35;;;;;;;;;;;;;;;;;;5052409;28;19960;-66
2023/10/14 12:33:04;;;;;;;;;;;;;;;;;;5054638;28;19921;-66
2023/10/14 12:35:32;;;;;;;;;;;;;;;;;;5036503;28;19924;-66
2023/10/14 12:37:59;;;;;;;;;;;;;;;;;;5054522;28;19968;-66
2023/10/14 12:40:29;;;;;;;;;;;;;;;;;;5054079;28;19947;-66
2023/10/14 12:43:00;;;;;;;;;;;;;;;;;;5054123;28;19921;-66
2023/10/14 12:45:26;;;;;;;;;;;;;;;;;;5054142;28;19925;-66
2023/10/14 12:48:11;;;;;;;;;;;;;;;;;;5054189;28;19921;-66
2023/10/14 12:50:46;;;;;;;;;;;;;;;;;;5054177;28;19932;-66
2023/10/14 12:53:12;;;;;;;;;;;;;;;;;;5054242;28;20008;-66
2023/10/14 12:55:44;;;;;;;;;;;;;;;;;;5052689;28;19956;-66
2023/10/14 12:58:10;;;;;;;;;;;;;;;;;;5054168;28;19929;-66
2023/10/14 13:00:36;;;;;;;;;;;;;;;;;;5053715;28;19940;-66
2023/10/14 13:03:09;;;;;;;;;;;;;;;;;;5052518;28;20015;-66
2023/10/14 13:05:35;;;;;;;;;;;;;;;;;;5053749;28;19924;-66
2023/10/14 13:08:00;;;;;;;;;;;;;;;;;;5053907;28;19931;-66
2023/10/14 13:10:28;;;;;;;;;;;;;;;;;;5052171;28;20316;-66
2023/10/14 13:12:53;;;;;;;;;;;;;;;;;;5053909;28;19931;-67
2023/10/14 13:15:25;;;;;;;;;;;;;;;;;;5053744;28;19920;-66
2023/10/14 13:17:55;;;;;;;;;;;;;;;;;;5053587;28;20401;-66
2023/10/14 13:20:26;;;;;;;;;;;;;;;;;;5068985;28;19931;-67
2023/10/14 13:22:52;;;;;;;;;;;;;;;;;;5053544;28;19966;-66
2023/10/14 13:25:18;;;;;;;;;;;;;;;;;;5053376;28;20320;-66
2023/10/14 13:27:43;;;;;;;;;;;;;;;;;;5053591;28;19967;-66
2023/10/14 13:30:09;;;;;;;;;;;;;;;;;;5053437;28;19921;-67
2023/10/14 13:32:36;;;;;;;;;;;;;;;;;;5053241;28;20675;-66
2023/10/14 13:35:05;;;;;;;;;;;;;;;;;;5053414;28;19960;-66
2023/10/14 13:37:31;;;;;;;;;;;;;;;;;;5053095;28;20391;-66
2023/10/14 13:39:57;;;;;;;;;;;;;;;;;;5053187;28;19967;-66
2023/10/14 13:42:23;;;;;;;;;;;;;;;;;;5052823;28;20015;-66
2023/10/14 13:44:49;;;;;;;;;;;;;;;;;;5053027;28;19921;-66
2023/10/14 13:47:17;;;;;;;;;;;;;;;;;;5052948;28;19921;-66
2023/10/14 13:49:45;;;;;;;;;;;;;;;;;;5052518;28;20317;-66
2023/10/14 13:52:16;;;;;;;;;;;;;;;;;;5052305;28;19956;-66
2023/10/14 13:54:42;;;;;;;;;;;;;;;;;;5052473;28;20380;-66
2023/10/14 13:57:11;;;;;;;;;;;;;;;;;;5052350;28;19925;-66
2023/10/14 13:59:38;;;;;;;;;;;;;;;;;;5052079;28;19935;-66
2023/10/14 14:02:04;;;;;;;;;;;;;;;;;;5052265;28;19925;-66
2023/10/14 14:04:32;;;;;;;;;;;;;;;;;;5051692;28;19928;-67
2023/10/14 14:06:58;;;;;;;;;;;;;;;;;;5050518;28;19979;-66
2023/10/14 14:09:27;;;;;;;;;;;;;;;;;;5051750;28;19921;-67
2023/10/14 14:11:56;;;;;;;;;;;;;;;;;;5051724;28;19928;-66
2023/10/14 14:14:25;;;;;;;;;;;;;;;;;;5067011;28;20381;-66
2023/10/14 14:16:51;;;;;;;;;;;;;;;;;;5051471;28;19925;-66
2023/10/14 14:19:19;;;;;;;;;;;;;;;;;;5052244;28;19928;-67
2023/10/14 14:21:45;;;;;;;;;;;;;;;;;;5052150;28;20574;-66
2023/10/14 14:24:11;;;;;;;;;;;;;;;;;;5052079;28;20410;-66
2023/10/14 14:26:37;;;;;;;;;;;;;;;;;;5052305;28;19931;-66
2023/10/14 14:29:03;;;;;;;;;;;;;;;;;;5052308;28;20425;-66
2023/10/14 14:31:30;;;;;;;;;;;;;;;;;;5067641;28;19921;-67
2023/10/14 14:33:56;;;;;;;;;;;;;;;;;;5067393;28;20386;-66
2023/10/14 14:36:22;;;;;;;;;;;;;;;;;;5052356;28;19927;-66
2023/10/14 14:38:48;;;;;;;;;;;;;;;;;;5052230;28;19929;-66
2023/10/14 14:41:17;;;;;;;;;;;;;;;;;;5052239;28;19925;-66
2023/10/14 14:43:43;;;;;;;;;;;;;;;;;;5051837;28;19927;-66
2023/10/14 14:46:11;;;;;;;;;;;;;;;;;;5050577;28;19921;-66
2023/10/14 14:48:37;;;;;;;;;;;;;;;;;;5051959;28;20135;-66
2023/10/14 14:51:03;;;;;;;;;;;;;;;;;;5051807;28;20456;-66
2023/10/14 14:53:30;;;;;;;;;;;;;;;;;;5050760;28;19931;-66
2023/10/14 14:55:56;;;;;;;;;;;;;;;;;;5051243;28;19924;-66
2023/10/14 14:58:22;;;;;;;;;;;;;;;;;;5051269;28;20542;-66
2023/10/14 15:00:48;;;;;;;;;;;;;;;;;;5051247;28;19933;-65
2023/10/14 15:03:15;;;;;;;;;;;;;;;;;;5051515;28;20275;-65
2023/10/14 15:05:45;;;;;;;;;;;;;;;;;;5051492;28;19921;-66
2023/10/14 15:08:11;;;;;;;;;;;;;;;;;;5051269;28;19921;-66
2023/10/14 15:10:36;;;;;;;;;;;;;;;;;;5051485;28;20324;-66
2023/10/14 15:13:02;;;;;;;;;;;;;;;;;;5051496;28;19931;-66
2023/10/14 15:15:28;;;;;;;;;;;;;;;;;;5051541;28;19925;-66
2023/10/14 15:17:55;;;;;;;;;;;;;;;;;;5051209;28;19970;-66
2023/10/14 15:20:21;;;;;;;;;;;;;;;;;;5051321;28;19925;-66
2023/10/14 15:22:47;;;;;;;;;;;;;;;;;;5051119;28;20274;-66
2023/10/14 15:25:13;;;;;;;;;;;;;;;;;;5051053;28;19978;-66
2023/10/14 15:27:39;;;;;;;;;;;;;;;;;;5066481;28;19925;-66
2023/10/14 15:30:11;;;;;;;;;;;;;;;;;;5051242;28;19934;-66
2023/10/14 15:32:37;;;;;;;;;;;;;;;;;;5051203;28;19967;-66
2023/10/14 15:35:03;;;;;;;;;;;;;;;;;;5050864;28;19920;-66
2023/10/14 15:37:30;;;;;;;;;;;;;;;;;;5067122;28;20297;-66
2023/10/14 15:39:56;;;;;;;;;;;;;;;;;;5051309;28;20381;-66
2023/10/14 15:42:21;;;;;;;;;;;;;;;;;;5051485;28;19925;-66
2023/10/14 15:44:47;;;;;;;;;;;;;;;;;;5051425;28;19932;-66
2023/10/14 15:47:13;;;;;;;;;;;;;;;;;;5051505;28;19952;-66
2023/10/14 15:49:42;;;;;;;;;;;;;;;;;;5051438;28;20456;-66
2023/10/14 15:52:09;;;;;;;;;;;;;;;;;;5051225;28;19927;-66
2023/10/14 15:54:35;;;;;;;;;;;;;;;;;;5051208;28;19931;-66
2023/10/14 15:57:03;;;;;;;;;;;;;;;;;;5049600;28;19920;-66
2023/10/14 15:59:29;;;;;;;;;;;;;;;;;;5051448;28;19928;-66
2023/10/14 16:01:55;;;;;;;;;;;;;;;;;;5051076;28;20274;-66
2023/10/14 16:04:21;;;;;;;;;;;;;;;;;;5051152;28;20370;-66
2023/10/14 16:06:47;;;;;;;;;;;;;;;;;;5035532;28;19971;-66
2023/10/14 16:09:13;;;;;;;;;;;;;;;;;;5054847;28;19921;-65
2023/10/14 16:11:39;;;;;;;;;;;;;;;;;;5054742;28;19974;-66
2023/10/14 16:14:05;;;;;;;;;;;;;;;;;;5054698;28;19924;-66
2023/10/14 16:16:32;;;;;;;;;;;;;;;;;;5054827;28;19960;-65
2023/10/14 16:18:58;;;;;;;;;;;;;;;;;;5054663;28;19925;-66
2023/10/14 16:21:24;;;;;;;;;;;;;;;;;;5054391;28;20015;-66
2023/10/14 16:23:50;;;;;;;;;;;;;;;;;;5054325;28;19929;-65
2023/10/14 16:26:18;;;;;;;;;;;;;;;;;;5054453;28;20398;-65
2023/10/14 16:28:45;;;;;;;;;;;;;;;;;;5054377;28;20297;-66
2023/10/14 16:31:11;;;;;;;;;;;;;;;;;;5054552;28;20007;-66
2023/10/14 16:33:37;;;;;;;;;;;;;;;;;;5036607;28;20377;-66
2023/10/14 16:36:04;;;;;;;;;;;;;;;;;;5036734;28;20275;-66
2023/10/14 16:38:29;;;;;;;;;;;;;;;;;;5036710;28;19925;-66
2023/10/14 16:40:55;;;;;;;;;;;;;;;;;;5054246;28;19932;-65
2023/10/14 16:43:24;;;;;;;;;;;;;;;;;;5036185;28;20336;-65
2023/10/14 16:45:51;;;;;;;;;;;;;;;;;;5054162;28;19924;-65
2023/10/14 16:48:16;;;;;;;;;;;;;;;;;;5036163;28;19932;-65
2023/10/14 16:50:43;;;;;;;;;;;;;;;;;;5054215;28;20263;-66
2023/10/14 16:53:09;;;;;;;;;;;;;;;;;;5036149;28;19924;-65
2023/10/14 16:55:38;;;;;;;;;;;;;;;;;;5035952;28;19927;-66
2023/10/14 16:58:05;;;;;;;;;;;;;;;;;;5054125;28;19934;-66
2023/10/14 17:00:32;;;;;;;;;;;;;;;;;;5053849;28;19952;-66
2023/10/14 17:02:58;;;;;;;;;;;;;;;;;;5054061;28;19920;-66
2023/10/14 17:05:23;;;;;;;;;;;;;;;;;;5053834;28;19931;-66
2023/10/14 17:07:49;;;;;;;;;;;;;;;;;;5053613;28;19921;-67
2023/10/14 17:10:15;;;;;;;;;;;;;;;;;;5053694;28;19975;-66
2023/10/14 17:12:41;;;;;;;;;;;;;;;;;;5054051;28;19921;-67
2023/10/14 17:15:09;;;;;;;;;;;;;;;;;;5053847;28;19939;-66
2023/10/14 17:17:35;;;;;;;;;;;;;;;;;;5053204;28;19928;-65
2023/10/14 17:20:01;;;;;;;;;;;;;;;;;;5053619;28;20015;-66
2023/10/14 17:22:30;;;;;;;;;;;;;;;;;;5053361;28;19932;-66
2023/10/14 17:24:57;;;;;;;;;;;;;;;;;;5053266;28;19982;-66